Time;durP1;ratioP1;P1;durP2;ratioP2;P2;SDS_P1;SDS_P2;PMS_P1;PMS_P2;Temp;Humidity;BMP_temperature;BMP_pressure;BME280_temperature;BME280_humidity;BME280_pressure;Samples;Min_cycle;Max_cycle;Signal;HPM_P1;HPM_P2
2022/11/23 00:04:55;;;;;;;4.43;1.67;;;;;;;5.47;100.00;99190.56;20550044;28;20050;-65
2022/11/23 00:15:17;;;;;;;3.87;1.77;;;;;;;5.47;100.00;99182.81;20525056;28;20054;-65
2022/11/23 00:25:38;;;;;;;4.57;1.77;;;;;;;5.49;100.00;99188.69;20581844;23;20084;-73
2022/11/23 00:36:07;;;;;;;3.87;1.70;;;;;;;5.57;100.00;99191.59;20910748;28;20659;-72
2022/11/23 00:46:29;;;;;;;8.48;1.80;;;;;;;5.57;100.00;99189.81;20941790;28;20181;-72
2022/11/23 00:56:50;;;;;;;3.87;1.73;;;;;;;5.63;100.00;99197.16;20960603;28;20110;-73
2022/11/23 01:07:12;;;;;;;7.47;1.80;;;;;;;5.68;100.00;99196.81;20959122;28;20639;-72
2022/11/23 01:17:33;;;;;;;2.97;2.00;;;;;;;5.65;100.00;99195.28;20952598;28;20486;-72
2022/11/23 01:27:55;;;;;;;4.17;1.60;;;;;;;5.60;100.00;99192.19;20949244;28;20049;-73
2022/11/23 01:38:16;;;;;;;6.20;1.87;;;;;;;5.64;100.00;99203.97;20951606;28;20041;-73
2022/11/23 01:48:47;;;;;;;4.68;1.90;;;;;;;5.68;100.00;99195.03;20928640;28;20060;-73
2022/11/23 01:59:15;;;;;;;3.45;1.90;;;;;;;5.70;100.00;99193.19;20935904;28;20114;-73
2022/11/23 02:09:36;;;;;;;4.25;1.70;;;;;;;5.74;100.00;99190.31;20938968;28;20431;-73
2022/11/23 02:20:07;;;;;;;8.48;2.05;;;;;;;5.79;100.00;99197.75;20960567;28;20094;-72
2022/11/23 02:30:31;;;;;;;2.83;1.80;;;;;;;5.79;100.00;99193.38;20948757;28;20048;-73
2022/11/23 02:40:53;;;;;;;3.22;1.80;;;;;;;5.79;100.00;99193.38;20945772;28;20048;-73
2022/11/23 02:51:14;;;;;;;2.73;1.40;;;;;;;5.83;100.00;99194.00;20944157;28;20098;-73
2022/11/23 03:01:36;;;;;;;3.80;1.70;;;;;;;5.85;100.00;99192.13;20937533;28;20087;-73
2022/11/23 03:11:57;;;;;;;4.45;1.90;;;;;;;5.88;100.00;99190.16;20933091;28;20490;-73
2022/11/23 03:22:19;;;;;;;12.43;1.50;;;;;;;5.90;100.00;99195.22;20964562;28;20212;-73
2022/11/23 03:32:40;;;;;;;3.50;1.77;;;;;;;5.93;100.00;99202.75;20967382;28;20490;-71
2022/11/23 03:43:02;;;;;;;3.83;1.70;;;;;;;5.94;100.00;99201.84;20957638;28;20545;-72
2022/11/23 03:53:24;;;;;;;3.15;1.70;;;;;;;5.96;100.00;99215.47;20970175;28;20064;-72
2022/11/23 04:03:45;;;;;;;4.83;2.33;;;;;;;5.98;100.00;99213.59;20968999;28;20048;-72
2022/11/23 04:14:07;;;;;;;3.73;2.40;;;;;;;6.00;100.00;99207.38;20961243;28;20049;-72
2022/11/23 04:24:28;;;;;;;7.77;2.57;;;;;;;6.07;100.00;99212.94;20957478;28;20033;-72
2022/11/23 04:34:50;;;;;;;4.17;2.70;;;;;;;6.13;100.00;99213.31;20946568;28;20044;-71
2022/11/23 04:45:11;;;;;;;4.00;2.80;;;;;;;6.19;100.00;99215.44;20968598;28;20070;-71
2022/11/23 04:55:33;;;;;;;5.77;3.00;;;;;;;6.21;100.00;99220.53;20958040;28;20048;-71
2022/11/23 05:05:57;;;;;;;12.93;4.22;;;;;;;6.27;100.00;99230.41;20955554;28;20052;-71
2022/11/23 05:16:19;;;;;;;5.68;3.40;;;;;;;6.34;100.00;99216.09;20956056;28;20090;-71
2022/11/23 05:26:40;;;;;;;8.97;4.13;;;;;;;6.34;100.00;99221.28;20951415;28;20403;-71
2022/11/23 05:37:02;;;;;;;7.67;4.23;;;;;;;6.39;100.00;99224.38;20949253;28;20556;-71
2022/11/23 05:47:23;;;;;;;8.73;4.30;;;;;;;6.45;100.00;99239.44;20936505;28;20399;-71
2022/11/23 05:57:45;;;;;;;6.30;4.73;;;;;;;6.47;100.00;99253.09;20934380;28;20067;-72
2022/11/23 06:08:06;;;;;;;11.67;5.43;;;;;;;6.46;100.00;99254.03;20933507;28;20097;-71
2022/11/23 06:18:28;;;;;;;12.03;5.33;;;;;;;6.48;100.00;99249.56;20955847;28;20068;-71
2022/11/23 06:28:50;;;;;;;8.27;5.13;;;;;;;6.48;100.00;99262.50;20894334;22;20064;-64
2022/11/23 06:39:12;;;;;;;;;;;;;;;6.47;100.00;99266.03;20739582;28;20132;-64
2022/11/23 06:49:33;;;;;;;11.27;5.33;;;;;;;6.44;100.00;99274.00;20679248;28;20330;-63
2022/11/23 06:59:55;;;;;;;10.33;5.50;;;;;;;6.47;100.00;99273.78;20682930;28;20046;-63
2022/11/23 07:10:16;;;;;;;9.43;5.60;;;;;;;6.46;100.00;99287.66;20676577;28;20145;-63
2022/11/23 07:20:38;;;;;;;8.05;5.20;;;;;;;6.46;100.00;99298.03;20685582;28;20468;-64
2022/11/23 07:30:59;;;;;;;9.90;5.60;;;;;;;6.47;100.00;99312.63;20682612;28;20045;-63
2022/11/23 07:41:21;;;;;;;10.30;5.40;;;;;;;6.47;100.00;99325.56;20697833;28;20462;-64
2022/11/23 07:51:43;;;;;;;13.17;5.33;;;;;;;6.47;100.00;99328.16;20686928;28;20038;-64
2022/11/23 08:02:04;;;;;;;10.83;5.37;;;;;;;6.49;100.00;99328.88;20681516;28;20038;-63
2022/11/23 08:12:26;;;;;;;9.13;4.47;;;;;;;6.51;100.00;99337.34;20691306;28;20049;-64
2022/11/23 08:22:47;;;;;;;10.93;4.47;;;;;;;6.60;100.00;99342.69;20678899;28;20049;-64
2022/11/23 08:33:09;;;;;;;6.67;3.63;;;;;;;6.65;100.00;99344.94;20705919;28;20097;-63
2022/11/23 08:43:31;;;;;;;7.30;3.60;;;;;;;6.64;100.00;99349.28;20696730;28;20054;-63
2022/11/23 08:53:52;;;;;;;8.75;4.70;;;;;;;6.67;100.00;99363.78;20685948;28;20115;-63
2022/11/23 09:04:14;;;;;;;7.80;4.40;;;;;;;6.71;100.00;99371.22;20683664;28;20100;-64
2022/11/23 09:14:41;;;;;;;9.20;4.70;;;;;;;6.74;100.00;99358.88;20678252;28;20210;-64
2022/11/23 09:25:03;;;;;;;16.87;5.60;;;;;;;6.87;100.00;99366.59;20678630;28;20129;-64
2022/11/23 09:35:25;;;;;;;10.52;5.32;;;;;;;7.04;100.00;99363.59;20680239;28;20137;-65
2022/11/23 09:45:51;;;;;;;12.07;5.90;;;;;;;7.20;100.00;99362.34;20665515;28;20115;-65
2022/11/23 09:56:24;;;;;;;11.93;6.30;;;;;;;7.38;100.00;99373.94;20679041;28;20053;-65
2022/11/23 10:06:53;;;;;;;12.98;7.07;;;;;;;7.42;100.00;99380.56;20673153;28;20049;-65
2022/11/23 10:17:30;;;;;;;16.75;6.25;;;;;;;7.53;100.00;99383.16;20681685;28;20038;-67
2022/11/23 10:27:58;;;;;;;11.63;5.85;;;;;;;7.60;100.00;99384.34;20680421;28;20073;-66
2022/11/23 10:38:23;;;;;;;10.55;6.40;;;;;;;7.66;100.00;99378.69;20682401;28;20107;-65
2022/11/23 10:48:46;;;;;;;10.27;6.05;;;;;;;7.71;100.00;99372.22;20666705;28;20038;-65
2022/11/23 10:59:26;;;;;;;8.75;5.38;;;;;;;7.86;100.00;99372.78;20670956;28;20042;-65
2022/11/23 11:09:56;;;;;;;10.57;5.25;;;;;;;7.89;100.00;99369.97;20692289;28;20057;-66
2022/11/23 11:20:30;;;;;;;14.15;5.35;;;;;;;7.98;100.00;99369.28;20689896;28;20480;-67
2022/11/23 11:31:19;;;;;;;13.02;5.35;;;;;;;7.98;100.00;99372.69;20688413;28;20619;-67
2022/11/23 11:41:46;;;;;;;17.52;5.03;;;;;;;8.06;100.00;99367.75;20689862;28;20077;-67
2022/11/23 11:52:17;;;;;;;11.15;4.25;;;;;;;8.06;100.00;99366.91;20694724;28;20039;-68
2022/11/23 12:02:57;;;;;;;8.25;4.38;;;;;;;8.15;100.00;99361.84;20677930;28;20525;-67
2022/11/23 12:13:22;;;;;;;11.68;4.65;;;;;;;8.29;100.00;99361.63;20694589;28;20046;-67
2022/11/23 12:23:49;;;;;;;9.38;3.78;;;;;;;8.41;100.00;99352.03;20689792;28;20046;-67
2022/11/23 12:34:36;;;;;;;8.20;3.03;;;;;;;8.45;100.00;99332.66;20681180;22;20077;-74
2022/11/23 12:45:03;;;;;;;9.05;2.80;;;;;;;8.54;100.00;99337.13;20790372;28;20500;-74
2022/11/23 12:55:49;;;;;;;14.32;2.60;;;;;;;8.62;100.00;99326.00;20781672;28;20045;-73
2022/11/23 13:06:20;;;;;;;8.63;2.20;;;;;;;8.51;99.95;99319.19;20792515;28;20100;-73
2022/11/23 13:17:00;;;;;;;7.15;1.85;;;;;;;8.46;99.18;99308.34;20791538;28;20054;-74
2022/11/23 13:27:25;;;;;;;6.70;1.85;;;;;;;8.43;98.83;99309.41;20791315;28;20103;-73
2022/11/23 13:37:55;;;;;;;8.73;1.63;;;;;;;8.51;96.77;99326.97;20785253;28;20049;-73
2022/11/23 13:48:18;;;;;;;6.85;1.70;;;;;;;8.44;97.36;99318.06;20775017;28;20061;-74
2022/11/23 13:59:24;;;;;;;8.15;1.30;;;;;;;8.42;95.99;99319.94;20781218;28;20124;-75
2022/11/23 14:09:58;;;;;;;9.30;1.27;;;;;;;8.39;96.38;99331.38;20803971;28;20098;-74
2022/11/23 14:21:17;;;;;;;6.80;1.50;;;;;;;8.32;96.63;99324.19;20798217;28;20045;-74
2022/11/23 14:31:57;;;;;;;8.35;1.40;;;;;;;8.25;96.33;99336.84;20581605;28;20061;-74
2022/11/23 14:42:23;;;;;;;1.95;1.05;;;;;;;8.19;96.59;99341.69;20762856;28;20041;-75
2022/11/23 14:52:45;;;;;;;4.93;1.50;;;;;;;8.08;96.01;99339.88;20763432;28;20103;-75
2022/11/23 15:03:08;;;;;;;;;;;;;;;7.82;97.85;99317.75;20741802;28;20528;-74
2022/11/23 15:13:54;;;;;;;5.45;1.70;;;;;;;7.81;96.28;99320.47;20798117;28;19949;-74
2022/11/23 15:24:24;;;;;;;8.07;1.90;;;;;;;7.68;97.19;99330.94;20787492;28;20049;-72
2022/11/23 15:34:47;;;;;;;10.27;1.63;;;;;;;7.56;96.93;99331.09;20802884;28;20049;-72
2022/11/23 15:45:32;;;;;;;5.25;1.40;;;;;;;7.34;97.40;99336.22;20787061;28;20057;-73
2022/11/23 15:56:02;;;;;;;6.47;1.75;;;;;;;7.11;97.89;99344.91;20795385;28;20053;-72
2022/11/23 16:06:38;;;;;;;11.13;2.00;;;;;;;6.92;98.46;99349.78;20786605;28;20080;-75
2022/11/23 16:17:20;;;;;;;7.03;1.90;;;;;;;6.73;99.45;99377.94;20779307;28;20451;-75
2022/11/23 16:27:42;;;;;;;5.70;1.75;;;;;;;6.58;99.95;99379.97;20764101;28;20072;-74
2022/11/23 16:38:04;;;;;;;12.13;2.10;;;;;;;6.48;99.37;99408.25;20775675;28;20484;-73
2022/11/23 16:48:26;;;;;;;13.43;2.90;;;;;;;6.37;100.00;99407.38;20777278;28;20563;-73
2022/11/23 16:58:48;;;;;;;9.43;2.40;;;;;;;6.23;99.82;99423.03;20773419;28;20096;-71
2022/11/23 17:09:09;;;;;;;;;;;;;;;6.13;99.71;99419.41;20780467;28;20054;-71
2022/11/23 17:19:31;;;;;;;10.03;2.57;;;;;;;6.08;98.87;99442.19;20775849;28;19925;-72
2022/11/23 17:29:58;;;;;;;8.05;3.03;;;;;;;5.96;99.39;99432.69;20770186;28;20129;-74
2022/11/23 17:40:23;;;;;;;11.07;3.05;;;;;;;5.90;99.06;99439.09;20782867;28;20046;-73
2022/11/23 17:50:46;;;;;;;11.45;3.78;;;;;;;5.88;98.24;99445.31;20802919;28;20038;-74
2022/11/23 18:01:12;;;;;;;13.57;4.15;;;;;;;5.87;98.79;99446.22;20780276;28;20045;-73
2022/11/23 18:11:34;;;;;;;12.23;3.92;;;;;;;5.87;98.65;99448.81;20778419;28;20045;-73
2022/11/23 18:21:56;;;;;;;9.47;3.37;;;;;;;6.00;96.72;99465.16;20775280;28;20069;-73
2022/11/23 18:32:17;;;;;;;;;;;;;;;6.02;96.00;99478.81;20784163;28;20084;-71
2022/11/23 18:42:39;;;;;;;8.02;3.47;;;;;;;6.10;97.24;99486.91;20783550;28;19955;-72
2022/11/23 18:53:00;;;;;;;12.03;2.97;;;;;;;6.09;97.62;99486.06;20785042;28;20099;-72
2022/11/23 19:03:22;;;;;;;13.67;3.10;;;;;;;6.15;97.24;99496.00;20781237;28;20073;-72
2022/11/23 19:13:51;;;;;;;9.07;3.00;;;;;;;6.17;96.64;99494.16;20785034;28;20045;-72
2022/11/23 19:24:13;;;;;;;8.75;3.45;;;;;;;6.14;97.11;99499.50;20798143;28;20079;-72
2022/11/23 19:34:34;;;;;;;9.17;2.93;;;;;;;6.21;96.17;99510.28;20781811;28;20049;-71
2022/11/23 19:44:56;;;;;;;13.40;3.30;;;;;;;6.25;96.76;99522.09;20781293;28;20037;-72
2022/11/23 19:55:17;;;;;;;8.43;2.93;;;;;;;6.24;97.25;99541.13;20789711;28;20096;-72
2022/11/23 20:05:54;;;;;;;12.70;2.83;;;;;;;6.19;99.13;99554.34;20790914;28;20416;-72
2022/11/23 20:16:18;;;;;;;12.48;3.35;;;;;;;6.15;100.00;99558.09;20797134;28;20049;-72
2022/11/23 20:26:41;;;;;;;6.53;2.58;;;;;;;6.01;100.00;99565.09;20798259;28;20500;-72
2022/11/23 20:37:04;;;;;;;8.57;2.70;;;;;;;5.92;100.00;99565.72;20785572;28;20095;-72
2022/11/23 20:47:26;;;;;;;9.27;2.75;;;;;;;5.93;100.00;99564.78;20796827;28;20750;-74
2022/11/23 20:57:50;;;;;;;9.30;2.70;;;;;;;5.86;100.00;99579.03;20792518;28;20041;-73
2022/11/23 21:08:16;;;;;;;10.55;2.70;;;;;;;5.89;100.00;99582.22;20792539;28;20041;-73
2022/11/23 21:18:46;;;;;;;11.80;3.17;;;;;;;5.91;100.00;99595.09;20790863;28;20081;-73
2022/11/23 21:29:09;;;;;;;9.60;2.50;;;;;;;5.92;100.00;99607.91;20790008;28;20127;-74
2022/11/23 21:39:31;;;;;;;10.45;2.60;;;;;;;5.97;100.00;99611.03;20786547;28;20519;-74
2022/11/23 21:49:53;;;;;;;;;;;;;;;6.04;100.00;99621.78;20777082;28;20091;-74
2022/11/23 22:00:15;;;;;;;10.70;2.43;;;;;;;6.07;100.00;99611.25;20782129;28;20537;-73
2022/11/23 22:10:36;;;;;;;14.07;2.53;;;;;;;6.08;100.00;99623.25;20765925;28;20041;-73
2022/11/23 22:21:03;;;;;;;9.70;2.17;;;;;;;6.12;100.00;99629.88;20774889;28;20044;-73
2022/11/23 22:31:24;;;;;;;11.25;2.78;;;;;;;6.10;100.00;99636.94;20783632;28;20451;-73
2022/11/23 22:41:46;;;;;;;5.70;2.70;;;;;;;6.14;100.00;99653.88;20781209;28;20120;-73
2022/11/23 22:52:08;;;;;;;5.50;3.00;;;;;;;6.11;100.00;99657.50;20787253;28;20041;-73
2022/11/23 23:02:30;;;;;;;7.85;3.63;;;;;;;6.16;100.00;99672.72;20799475;28;20049;-73
2022/11/23 23:12:52;;;;;;;9.30;3.40;;;;;;;6.27;100.00;99685.78;20802018;28;20492;-73
2022/11/23 23:23:14;;;;;;;8.05;3.42;;;;;;;6.25;100.00;99685.09;20782037;28;20048;-73
2022/11/23 23:33:36;;;;;;;6.83;3.03;;;;;;;6.15;100.00;99696.94;20793495;28;20050;-72
2022/11/23 23:43:58;;;;;;;8.70;3.53;;;;;;;6.08;100.00;99701.69;20795388;28;20058;-73
2022/11/23 23:54:20;;;;;;;8.03;3.77;;;;;;;6.02;100.00;99707.25;20800459;28;20052;-72
